Time;durP1;ratioP1;P1;durP2;ratioP2;P2;SDS_P1;SDS_P2;PMS_P1;PMS_P2;Temp;Humidity;BMP_temperature;BMP_pressure;BME280_temperature;BME280_humidity;BME280_pressure;Samples;Min_cycle;Max_cycle;Signal;HPM_P1;HPM_P2
2023/05/04 00:02:09;;;;;;;7.28;4.53;;;6.00;99.90;;;;;;4960959;28;20409;-68
2023/05/04 00:04:35;;;;;;;11.70;5.10;;;;;;;;;;4966020;28;20045;-68
2023/05/04 00:07:01;;;;;;;11.82;5.10;;;6.10;99.90;;;;;;4960593;28;20070;-68
2023/05/04 00:09:27;;;;;;;7.43;4.95;;;;;;;;;;4947021;28;20042;-68
2023/05/04 00:11:53;;;;;;;9.45;5.57;;;;;;;;;;4960218;28;20046;-69
2023/05/04 00:14:19;;;;;;;9.00;5.28;;;;;;;;;;4983917;28;20046;-68
2023/05/04 00:16:45;;;;;;;10.70;5.15;;;;;;;;;;4966066;28;20145;-69
2023/05/04 00:19:11;;;;;;;14.70;5.15;;;;;;;;;;4966723;28;20050;-69
2023/05/04 00:21:38;;;;;;;10.80;5.40;;;;;;;;;;4983414;28;20034;-69
2023/05/04 00:24:05;;;;;;;11.40;5.13;;;;;;;;;;4984395;28;20085;-69
2023/05/04 00:26:31;;;;;;;7.40;4.70;;;;;;;;;;4983690;28;20173;-69
2023/05/04 00:28:56;;;;;;;12.73;5.15;;;6.00;99.90;;;;;;4984689;28;20433;-68
2023/05/04 00:31:22;;;;;;;9.30;5.18;;;;;;;;;;4966222;28;20072;-68
2023/05/04 00:33:48;;;;;;;12.88;5.60;;;;;;;;;;4966972;28;20144;-68
2023/05/04 00:36:14;;;;;;;9.73;5.70;;;;;;;;;;4958265;28;20586;-69
2023/05/04 00:38:48;;;;;;;11.25;5.00;;;5.80;99.90;;;;;;4970199;28;20057;-68
2023/05/04 00:41:14;;;;;;;9.07;5.05;;;;;;;;;;4986361;28;20408;-69
2023/05/04 00:43:40;;;;;;;8.27;5.47;;;;;;;;;;4968961;28;20134;-69
2023/05/04 00:46:06;;;;;;;5.95;4.88;;;;;;;;;;4970234;28;20054;-68
2023/05/04 00:48:31;;;;;;;9.27;5.85;;;6.10;99.90;;;;;;4969342;28;20137;-68
2023/05/04 00:50:57;;;;;;;9.77;5.80;;;;;;;;;;4976430;28;20039;-69
2023/05/04 00:53:23;;;;;;;15.85;6.57;;;;;;;;;;4967916;28;20050;-68
2023/05/04 00:55:49;;;;;;;18.13;6.32;;;;;;;;;;4969547;28;20054;-68
2023/05/04 00:58:16;;;;;;;12.27;6.63;;;;;;;;;;4961960;28;20428;-68
2023/05/04 01:00:42;;;;;;;13.68;5.25;;;;;;;;;;4963823;28;20129;-68
2023/05/04 01:03:09;;;;;;;9.75;5.70;;;;;;;;;;4963952;28;20173;-68
2023/05/04 01:05:38;;;;;;;8.20;4.95;;;;;;;;;;4966413;28;20034;-69
2023/05/04 01:08:07;;;;;;;11.52;5.50;;;;;;;;;;4964137;28;20043;-68
2023/05/04 01:10:37;;;;;;;9.20;5.50;;;;;;;;;;4965050;28;20057;-68
2023/05/04 01:13:05;;;;;;;11.95;4.82;;;;;;;;;;4963636;28;20145;-68
2023/05/04 01:15:31;;;;;;;11.52;5.18;;;;;;;;;;4965497;28;20046;-69
2023/05/04 01:17:57;;;;;;;8.50;5.22;;;;;;;;;;4961176;28;20050;-68
2023/05/04 01:20:23;;;;;;;8.13;4.82;;;;;;;;;;4964899;28;20484;-68
2023/05/04 01:22:49;;;;;;;9.32;4.88;;;;;;;;;;4963376;28;20069;-69
2023/05/04 01:25:16;;;;;;;12.23;5.68;;;;;;;;;;4964006;28;20105;-68
2023/05/04 01:27:45;;;;;;;10.13;5.55;;;;;;;;;;4966028;28;20413;-68
2023/05/04 01:30:32;;;;;;;11.15;5.90;;;;;;;;;;4962346;28;20413;-68
2023/05/04 01:32:59;;;;;;;10.68;5.65;;;;;;;;;;4966393;28;20051;-68
2023/05/04 01:35:25;;;;;;;14.65;5.78;;;;;;;;;;4963031;28;20050;-68
2023/05/04 01:37:51;;;;;;;10.57;5.10;;;;;;;;;;4960733;28;20062;-68
2023/05/04 01:40:17;;;;;;;13.15;5.50;;;;;;;;;;4963178;28;20054;-68
2023/05/04 01:42:43;;;;;;;12.15;5.38;;;;;;;;;;4963872;28;20049;-68
2023/05/04 01:45:10;;;;;;;11.95;6.15;;;;;;;;;;4959230;28;20078;-68
2023/05/04 01:47:36;;;;;;;10.15;6.25;;;;;;;;;;4963517;28;20047;-69
2023/05/04 01:50:02;;;;;;;12.27;5.60;;;;;;;;;;4963084;28;20404;-69
2023/05/04 01:52:28;;;;;;;11.73;6.10;;;;;;;;;;4962075;28;20085;-68
2023/05/04 01:54:54;;;;;;;9.55;4.82;;;;;;;;;;4961438;28;20057;-68
2023/05/04 01:57:20;;;;;;;8.50;5.72;;;;;;;;;;4968357;28;20742;-69
2023/05/04 01:59:46;;;;;;;10.52;5.60;;;;;;;;;;4967589;28;20132;-68
2023/05/04 02:02:11;;;;;;;9.13;5.35;;;5.80;99.90;;;;;;4965589;28;20117;-69
2023/05/04 02:04:37;;;;;;;11.13;5.05;;;;;;;;;;4967312;28;20420;-69
2023/05/04 02:07:03;;;;;;;14.13;5.60;;;;;;;;;;4983073;28;20042;-69
2023/05/04 02:09:30;;;;;;;8.50;5.43;;;;;;;;;;4963096;28;20066;-68
2023/05/04 02:12:27;;;;;;;12.25;5.53;;;;;;;;;;4961394;28;20074;-69
2023/05/04 02:14:53;;;;;;;9.82;5.57;;;;;;;;;;4957157;28;20054;-68
2023/05/04 02:17:19;;;;;;;10.50;5.70;;;;;;;;;;4979784;28;20050;-69
2023/05/04 02:19:45;;;;;;;10.88;6.72;;;;;;;;;;4979806;28;20038;-69
2023/05/04 02:22:11;;;;;;;13.40;5.53;;;;;;;;;;4963681;28;20476;-69
2023/05/04 02:24:39;;;;;;;11.45;5.55;;;6.10;99.90;;;;;;4965421;28;20042;-68
2023/05/04 02:27:05;;;;;;;12.75;5.65;;;;;;;;;;4964053;28;20504;-68
2023/05/04 02:29:31;;;;;;;11.32;6.32;;;;;;;;;;4961301;28;20127;-68
2023/05/04 02:31:57;;;;;;;7.90;5.38;;;;;;;;;;4983500;28;20116;-69
2023/05/04 02:34:23;;;;;;;11.70;6.18;;;;;;;;;;4980238;28;20050;-68
2023/05/04 02:36:49;;;;;;;9.88;6.43;;;;;;;;;;4967068;28;20512;-69
2023/05/04 02:39:15;;;;;;;10.32;5.65;;;;;;;;;;4963946;28;20129;-69
2023/05/04 02:41:41;;;;;;;10.50;6.15;;;;;;;;;;4967057;28;20184;-68
2023/05/04 02:44:06;;;;;;;10.35;5.78;;;;;;;;;;4963083;28;20053;-69
2023/05/04 02:46:32;;;;;;;10.93;6.03;;;;;;;;;;4963645;28;20397;-69
2023/05/04 02:48:58;;;;;;;12.77;7.18;;;;;;;;;;4963485;28;20050;-69
2023/05/04 02:51:24;;;;;;;12.38;6.43;;;;;;;;;;4962183;28;20133;-69
2023/05/04 02:53:50;;;;;;;12.73;6.63;;;;;;;;;;4983486;28;20038;-68
2023/05/04 02:56:16;;;;;;;10.80;6.28;;;;;;;;;;4982245;28;20764;-69
2023/05/04 02:58:42;;;;;;;16.75;6.82;;;;;;;;;;4949339;28;20488;-69
2023/05/04 03:01:08;;;;;;;15.02;6.68;;;;;;;;;;4964180;28;20054;-68
2023/05/04 03:03:34;;;;;;;13.98;6.85;;;5.90;99.90;;;;;;4964469;28;20138;-69
2023/05/04 03:06:00;;;;;;;10.13;6.07;;;;;;;;;;4966419;28;20530;-68
2023/05/04 03:08:26;;;;;;;13.35;7.10;;;;;;;;;;4964301;28;20455;-68
2023/05/04 03:10:51;;;;;;;15.68;8.85;;;;;;;;;;4966022;28;20100;-68
2023/05/04 03:13:17;;;;;;;12.70;6.53;;;;;;;;;;4982468;28;20046;-69
2023/05/04 03:15:43;;;;;;;10.40;6.38;;;;;;;;;;4962247;28;20795;-68
2023/05/04 03:18:09;;;;;;;16.63;7.10;;;;;;;;;;4959765;28;20056;-69
2023/05/04 03:20:35;;;;;;;11.52;6.43;;;;;;;;;;4957466;28;20053;-69
2023/05/04 03:23:01;;;;;;;14.70;7.38;;;;;;;;;;4960730;28;20088;-69
2023/05/04 03:25:27;;;;;;;13.32;6.78;;;;;;;;;;4965469;28;20146;-68
2023/05/04 03:27:53;;;;;;;11.68;6.53;;;;;;;;;;4962416;28;20050;-69
2023/05/04 03:30:19;;;;;;;13.07;7.25;;;;;;;;;;4961707;28;20395;-69
2023/05/04 03:32:46;;;;;;;11.65;6.15;;;;;;;;;;4984676;28;20133;-69
2023/05/04 03:35:13;;;;;;;14.82;7.50;;;;;;;;;;4963386;28;20098;-69
2023/05/04 03:37:38;;;;;;;11.02;6.35;;;;;;;;;;4954931;28;20086;-68
2023/05/04 03:40:05;;;;;;;13.60;6.53;;;6.10;99.90;;;;;;4960328;28;20086;-68
2023/05/04 03:42:31;;;;;;;13.27;6.93;;;;;;;;;;4980327;28;20086;-69
2023/05/04 03:44:57;;;;;;;14.85;7.50;;;;;;;;;;4963494;28;20125;-69
2023/05/04 03:47:23;;;;;;;13.43;6.65;;;;;;;;;;4959299;28;20052;-69
2023/05/04 03:49:49;;;;;;;11.77;7.60;;;;;;;;;;4981363;28;20046;-69
2023/05/04 03:52:14;;;;;;;11.88;6.70;;;6.00;99.90;;;;;;4983238;28;20077;-69
2023/05/04 03:54:40;;;;;;;12.00;6.50;;;6.00;99.90;;;;;;4961947;28;20117;-68
2023/05/04 03:57:06;;;;;;;11.35;6.40;;;;;;;;;;4962634;28;20501;-69
2023/05/04 03:59:32;;;;;;;11.60;7.28;;;;;;;;;;4964061;28;20816;-68
2023/05/04 04:01:58;;;;;;;13.23;7.57;;;;;;;;;;4961591;28;20085;-69
2023/05/04 04:04:24;;;;;;;13.15;7.72;;;;;;;;;;4957346;28;20039;-69
2023/05/04 04:06:50;;;;;;;13.57;7.82;;;;;;;;;;4961650;28;20046;-69
2023/05/04 04:09:16;;;;;;;15.38;8.13;;;;;;;;;;4963870;28;20073;-68
2023/05/04 04:11:41;;;;;;;15.63;7.70;;;6.10;99.90;;;;;;4967324;28;20487;-69
2023/05/04 04:14:07;;;;;;;13.75;7.60;;;;;;;;;;4966275;28;20046;-68
2023/05/04 04:16:33;;;;;;;12.10;6.95;;;;;;;;;;4969792;28;20046;-68
2023/05/04 04:19:00;;;;;;;12.85;7.43;;;;;;;;;;4967646;28;20058;-69
2023/05/04 04:21:27;;;;;;;9.75;7.30;;;;;;;;;;4985815;28;20129;-69
2023/05/04 04:23:52;;;;;;;13.25;6.90;;;;;;;;;;4968017;28;20047;-69
2023/05/04 04:26:19;;;;;;;13.60;7.28;;;;;;;;;;4968166;28;20062;-68
2023/05/04 04:28:49;;;;;;;16.20;6.72;;;;;;;;;;4968850;28;20061;-68
2023/05/04 04:31:19;;;;;;;15.52;7.10;;;;;;;;;;4967880;28;20065;-69
2023/05/04 04:33:46;;;;;;;11.95;7.18;;;;;;;;;;4965039;28;20134;-69
2023/05/04 04:36:15;;;;;;;18.15;8.02;;;6.00;99.90;;;;;;4966194;28;20101;-68
2023/05/04 04:38:41;;;;;;;13.88;8.10;;;6.10;99.90;;;;;;4970154;28;20049;-68
2023/05/04 04:41:07;;;;;;;10.55;7.10;;;;;;;;;;4984832;28;20047;-69
2023/05/04 04:43:34;;;;;;;15.05;8.52;;;;;;;;;;4967503;28;20046;-68
2023/05/04 04:46:00;;;;;;;13.50;6.82;;;;;;;;;;4965128;28;20042;-69
2023/05/04 04:48:26;;;;;;;15.45;7.75;;;6.00;99.90;;;;;;4986917;28;20042;-69
2023/05/04 04:50:52;;;;;;;14.77;7.43;;;;;;;;;;4967808;28;20046;-69
2023/05/04 04:53:18;;;;;;;11.73;7.07;;;;;;;;;;4969428;28;20520;-69
2023/05/04 04:55:45;;;;;;;17.20;8.52;;;;;;;;;;4967353;28;20042;-69
2023/05/04 04:58:11;;;;;;;15.45;7.90;;;;;;;;;;4968892;28;20545;-68
2023/05/04 05:00:36;;;;;;;12.02;7.78;;;6.10;99.90;;;;;;4967642;28;20045;-68
2023/05/04 05:03:03;;;;;;;14.70;7.13;;;;;;;;;;4966883;28;20046;-69
2023/05/04 05:05:29;;;;;;;14.15;7.25;;;;;;;;;;4964259;28;20054;-69
2023/05/04 05:07:55;;;;;;;17.45;8.60;;;;;;;;;;4969024;28;20488;-68
2023/05/04 05:10:21;;;;;;;12.73;7.15;;;6.20;99.90;;;;;;4968260;28;20046;-69
2023/05/04 05:12:49;;;;;;;17.60;8.38;;;6.40;99.90;;;;;;4987128;28;20042;-68
2023/05/04 05:15:15;;;;;;;23.73;8.98;;;;;;;;;;4986136;28;20130;-68
2023/05/04 05:17:41;;;;;;;15.77;7.97;;;;;;;;;;4986645;28;20497;-69
2023/05/04 05:20:11;;;;;;;10.63;7.20;;;;;;;;;;4965227;28;20038;-69
2023/05/04 05:22:37;;;;;;;14.88;7.93;;;6.40;99.90;;;;;;4968579;28;20054;-68
2023/05/04 05:25:04;;;;;;;13.70;7.57;;;;;;;;;;4968462;28;20104;-69
2023/05/04 05:27:31;;;;;;;16.73;7.93;;;;;;;;;;4968914;28;20046;-69
2023/05/04 05:29:58;;;;;;;12.73;6.82;;;6.70;99.90;;;;;;4969524;28;20035;-68
2023/05/04 05:32:23;;;;;;;18.50;8.43;;;;;;;;;;4986447;28;20081;-68
2023/05/04 05:34:50;;;;;;;13.35;7.35;;;;;;;;;;4969865;28;20074;-69
2023/05/04 05:37:16;;;;;;;15.55;8.77;;;;;;;;;;4968803;28;20050;-69
2023/05/04 05:39:42;;;;;;;12.20;8.02;;;;;;;;;;4969654;28;20057;-69
2023/05/04 05:42:11;;;;;;;12.65;7.30;;;;;;;;;;4962414;28;20038;-69
2023/05/04 05:44:37;;;;;;;15.38;8.18;;;;;;;;;;4987012;28;20519;-69
2023/05/04 05:47:04;;;;;;;16.05;7.75;;;;;;;;;;4982870;28;20038;-69
2023/05/04 05:49:30;;;;;;;15.70;8.13;;;;;;;;;;4969178;28;20092;-69
2023/05/04 05:51:57;;;;;;;15.05;6.93;;;;;;;;;;4968823;28;20157;-69
2023/05/04 05:54:23;;;;;;;13.27;6.95;;;;;;;;;;4969063;28;20058;-69
2023/05/04 05:56:49;;;;;;;12.50;7.47;;;8.20;99.90;;;;;;4968133;28;20105;-70
2023/05/04 05:59:15;;;;;;;12.00;7.20;;;;;;;;;;4969062;28;20060;-71
2023/05/04 06:01:41;;;;;;;11.77;8.07;;;;;;;;;;4968617;28;20137;-71
2023/05/04 06:04:07;;;;;;;14.13;7.63;;;;;;;;;;4983920;28;20124;-70
2023/05/04 06:06:33;;;;;;;13.65;7.88;;;;;;;;;;4965247;28;21172;-70
2023/05/04 06:08:59;;;;;;;12.80;7.47;;;;;;;;;;4968306;28;20042;-72
2023/05/04 06:11:26;;;;;;;11.93;7.78;;;;;;;;;;4967934;28;20048;-72
2023/05/04 06:13:52;;;;;;;14.13;7.72;;;;;;;;;;4967673;28;20046;-72
2023/05/04 06:16:18;;;;;;;14.43;7.20;;;;;;;;;;4966137;28;20046;-71
2023/05/04 06:18:44;;;;;;;11.48;7.78;;;;;;;;;;4984505;28;20061;-73
2023/05/04 06:21:10;;;;;;;16.13;7.53;;;;;;;;;;4966119;28;20038;-72
2023/05/04 06:23:36;;;;;;;15.18;7.32;;;;;;;;;;4965897;28;20402;-71
2023/05/04 06:26:09;;;;;;;17.05;7.95;;;;;;;;;;4963607;28;20050;-71
2023/05/04 06:28:35;;;;;;;13.68;7.47;;;9.00;99.90;;;;;;4965026;28;20085;-71
2023/05/04 06:31:01;;;;;;;15.38;7.55;;;;;;;;;;4957133;28;20142;-71
2023/05/04 06:33:27;;;;;;;14.77;7.97;;;;;;;;;;4965339;28;20069;-71
2023/05/04 06:35:53;;;;;;;12.50;7.55;;;;;;;;;;4980288;28;20471;-72
2023/05/04 06:38:20;;;;;;;14.70;7.47;;;;;;;;;;4960326;28;20051;-72
2023/05/04 06:40:46;;;;;;;13.75;7.50;;;;;;;;;;4977499;28;20705;-72
2023/05/04 06:43:12;;;;;;;11.15;6.65;;;;;;;;;;4961972;28;20038;-75
2023/05/04 06:45:38;;;;;;;15.63;7.53;;;9.90;99.90;;;;;;4941354;28;20094;-72
2023/05/04 06:48:04;;;;;;;13.40;7.60;;;;;;;;;;4961773;28;20049;-72
2023/05/04 06:50:32;;;;;;;10.50;6.30;;;10.20;99.90;;;;;;4959176;28;20073;-71
2023/05/04 06:53:06;;;;;;;10.73;6.90;;;;;;;;;;4959782;28;20046;-72
2023/05/04 06:55:32;;;;;;;13.80;7.37;;;;;;;;;;4960666;28;20055;-73
2023/05/04 06:57:57;;;;;;;13.63;7.22;;;10.80;99.90;;;;;;4980837;28;20054;-73
2023/05/04 07:00:24;;;;;;;20.08;7.78;;;;;;;;;;4964716;28;20054;-72
2023/05/04 07:02:51;;;;;;;12.45;7.13;;;10.50;99.90;;;;;;4966550;28;20042;-71
2023/05/04 07:05:17;;;;;;;12.32;7.15;;;;;;;;;;4967424;28;20050;-74
2023/05/04 07:07:43;;;;;;;13.13;7.70;;;;;;;;;;4985732;28;20049;-72
2023/05/04 07:10:09;;;;;;;12.13;7.22;;;;;;;;;;4966835;28;20046;-72
2023/05/04 07:12:36;;;;;;;11.57;6.70;;;;;;;;;;4967695;28;20692;-71
2023/05/04 07:15:02;;;;;;;12.32;7.03;;;;;;;;;;4949256;28;20078;-71
2023/05/04 07:17:30;;;;;;;13.55;7.20;;;;;;;;;;4964053;28;20050;-72
2023/05/04 07:19:56;;;;;;;11.57;7.60;;;;;;;;;;4967432;28;20135;-71
2023/05/04 07:22:22;;;;;;;9.75;6.90;;;;;;;;;;4967836;28;20061;-71
2023/05/04 07:24:48;;;;;;;16.10;7.05;;;;;;;;;;4951148;28;20050;-73
2023/05/04 07:27:14;;;;;;;13.88;7.80;;;;;;;;;;4968250;28;20039;-71
2023/05/04 07:29:40;;;;;;;11.77;7.28;;;;;;;;;;4983716;28;20053;-71
2023/05/04 07:32:06;;;;;;;9.18;6.80;;;;;;;;;;4959963;28;20488;-71
2023/05/04 07:34:34;;;;;;;15.88;6.45;;;;;;;;;;4948457;28;20054;-73
2023/05/04 07:37:00;;;;;;;13.30;7.25;;;;;;;;;;4961825;28;20378;-73
2023/05/04 07:39:26;;;;;;;14.43;6.97;;;;;;;;;;4974859;28;20046;-72
2023/05/04 07:41:53;;;;;;;13.35;7.35;;;;;;;;;;4962295;28;20047;-73
2023/05/04 07:44:19;;;;;;;11.23;7.10;;;;;;;;;;4948558;28;20050;-72
2023/05/04 07:46:45;;;;;;;10.85;6.75;;;;;;;;;;4962751;28;20046;-72
2023/05/04 07:49:11;;;;;;;14.43;7.72;;;;;;;;;;4970922;28;20038;-72
2023/05/04 07:51:38;;;;;;;16.33;7.30;;;;;;;;;;4971086;28;20046;-71
2023/05/04 07:54:03;;;;;;;12.35;7.13;;;11.60;99.90;;;;;;4972020;28;20046;-72
2023/05/04 07:56:29;;;;;;;13.95;7.15;;;;;;;;;;4971079;28;20092;-72
2023/05/04 07:58:55;;;;;;;13.43;6.85;;;;;;;;;;4964570;28;20104;-71
2023/05/04 08:01:21;;;;;;;9.88;7.40;;;11.80;99.90;;;;;;4988342;28;20046;-71
2023/05/04 08:03:47;;;;;;;13.15;6.40;;;;;;;;;;4965425;28;20153;-72
2023/05/04 08:06:13;;;;;;;14.45;7.15;;;;;;;;;;4970701;28;20085;-71
2023/05/04 08:08:39;;;;;;;17.80;7.70;;;12.00;99.90;;;;;;4970069;28;20189;-72
2023/05/04 08:11:04;;;;;;;10.13;6.25;;;12.10;99.90;;;;;;4970957;28;20046;-72
2023/05/04 08:13:30;;;;;;;11.48;6.50;;;;;;;;;;4970539;28;20488;-74
2023/05/04 08:16:00;;;;;;;10.68;6.38;;;;;;;;;;4969740;28;20053;-73
2023/05/04 08:18:26;;;;;;;12.20;6.82;;;;;;;;;;4970932;28;20073;-74
2023/05/04 08:20:53;;;;;;;10.45;6.85;;;;;;;;;;4969818;28;20054;-74
2023/05/04 08:23:19;;;;;;;11.98;6.72;;;;;;;;;;4968490;28;20789;-72
2023/05/04 08:25:44;;;;;;;10.63;6.72;;;12.20;99.90;;;;;;4970740;28;20042;-71
2023/05/04 08:28:10;;;;;;;14.52;5.85;;;12.30;99.90;;;;;;4987514;28;20034;-71
2023/05/04 08:30:37;;;;;;;12.32;5.72;;;12.30;99.90;;;;;;4967680;28;20057;-71
2023/05/04 08:33:03;;;;;;;10.02;6.30;;;;;;;;;;4967659;28;20042;-71
2023/05/04 08:35:29;;;;;;;12.48;7.28;;;;;;;;;;4970687;28;20057;-72
2023/05/04 08:37:55;;;;;;;10.30;7.03;;;12.50;99.90;;;;;;4967326;28;20074;-71
2023/05/04 08:40:22;;;;;;;12.43;6.43;;;12.50;99.90;;;;;;4969675;28;20408;-71
2023/05/04 08:42:51;;;;;;;10.65;6.10;;;;;;;;;;4970959;28;20480;-71
2023/05/04 08:45:17;;;;;;;11.77;5.53;;;;;;;;;;4982154;28;20060;-72
2023/05/04 08:47:44;;;;;;;10.73;5.93;;;;;;;;;;4970990;28;20050;-71
2023/05/04 08:50:11;;;;;;;10.40;5.90;;;13.00;99.90;;;;;;4970669;28;20042;-72
2023/05/04 08:52:37;;;;;;;11.60;5.70;;;13.20;99.90;;;;;;4970659;28;20069;-71
2023/05/04 08:55:04;;;;;;;8.60;5.70;;;;;;;;;;4970655;28;20081;-71
2023/05/04 08:57:30;;;;;;;10.00;6.28;;;;;;;;;;4968271;28;20058;-71
2023/05/04 08:59:57;;;;;;;11.68;6.10;;;13.30;99.90;;;;;;4967135;28;20058;-71
2023/05/04 09:02:23;;;;;;;13.23;6.32;;;;;;;;;;4975559;28;20117;-71
2023/05/04 09:04:50;;;;;;;11.10;6.45;;;;;;;;;;4968165;28;20051;-72
2023/05/04 09:07:17;;;;;;;10.82;5.72;;;;;;;;;;4986223;28;20046;-72
2023/05/04 09:09:43;;;;;;;9.18;6.10;;;13.90;99.90;;;;;;4967659;28;20049;-72
2023/05/04 09:12:09;;;;;;;13.45;5.47;;;;;;;;;;4969262;28;20046;-70
2023/05/04 09:14:35;;;;;;;7.55;4.40;;;14.10;99.90;;;;;;4965675;28;20137;-71
2023/05/04 09:17:02;;;;;;;9.75;5.28;;;13.90;99.90;;;;;;4964660;28;20043;-71
2023/05/04 09:19:32;;;;;;;12.68;5.47;;;14.20;99.90;;;;;;4966298;28;20042;-71
2023/05/04 09:22:01;;;;;;;12.60;5.40;;;14.40;99.90;;;;;;4983758;28;20412;-71
2023/05/04 09:24:28;;;;;;;9.90;4.68;;;14.50;99.90;;;;;;4970661;28;20046;-71
2023/05/04 09:26:54;;;;;;;11.48;5.03;;;;;;;;;;4966025;28;20054;-72
2023/05/04 09:29:22;;;;;;;8.35;5.25;;;;;;;;;;4983491;28;20500;-74
2023/05/04 09:31:49;;;;;;;13.52;5.63;;;14.70;99.90;;;;;;4971134;28;20116;-72
2023/05/04 09:34:17;;;;;;;12.18;5.72;;;14.70;99.90;;;;;;4964337;28;20796;-73
2023/05/04 09:36:43;;;;;;;9.85;4.25;;;;;;;;;;4985062;28;20711;-73
2023/05/04 09:39:12;;;;;;;9.13;5.20;;;15.20;99.90;;;;;;4987088;28;20046;-72
2023/05/04 09:41:38;;;;;;;8.90;5.00;;;;;;;;;;4961197;28;20489;-73
2023/05/04 09:44:04;;;;;;;5.95;4.78;;;;;;;;;;4968849;28;20042;-73
2023/05/04 09:46:30;;;;;;;7.28;4.32;;;;;;;;;;4987865;28;20046;-75
2023/05/04 09:48:56;;;;;;;6.65;4.13;;;;;;;;;;4968176;28;20512;-73
2023/05/04 09:51:24;;;;;;;9.73;4.70;;;15.30;99.90;;;;;;4969596;28;20038;-72
2023/05/04 09:53:51;;;;;;;15.32;5.63;;;15.20;99.90;;;;;;4982315;28;20815;-74
2023/05/04 09:56:29;;;;;;;6.57;4.22;;;;;;;;;;4987406;28;20042;-73
2023/05/04 09:58:58;;;;;;;8.38;4.55;;;;;;;;;;4965409;28;20054;-73
2023/05/04 10:01:28;;;;;;;6.28;3.55;;;15.70;99.90;;;;;;4961671;28;20133;-73
2023/05/04 10:03:54;;;;;;;8.52;4.72;;;15.60;99.90;;;;;;4976536;28;20046;-71
2023/05/04 10:06:21;;;;;;;6.75;4.00;;;;;;;;;;4965199;28;20109;-72
2023/05/04 10:08:48;;;;;;;7.07;3.65;;;15.70;99.90;;;;;;4976195;28;20053;-73
2023/05/04 10:11:17;;;;;;;12.48;5.03;;;15.80;99.90;;;;;;4967383;28;20035;-72
2023/05/04 10:13:49;;;;;;;8.55;4.78;;;15.80;99.90;;;;;;4967327;28;20772;-72
2023/05/04 10:16:38;;;;;;;9.38;4.05;;;15.70;99.90;;;;;;4963660;28;20066;-71
2023/05/04 10:19:19;;;;;;;11.32;5.05;;;15.80;99.90;;;;;;4963228;28;20464;-72
2023/05/04 10:22:02;;;;;;;7.72;4.68;;;16.00;99.90;;;;;;4968987;28;20093;-72
2023/05/04 10:24:56;;;;;;;6.47;4.25;;;16.10;99.90;;;;;;4983964;28;20042;-71
2023/05/04 10:27:50;;;;;;;9.65;4.32;;;15.90;99.90;;;;;;4964341;28;20062;-71
2023/05/04 10:30:20;;;;;;;6.15;3.42;;;16.00;99.90;;;;;;4965404;28;20046;-71
2023/05/04 10:32:46;;;;;;;15.40;4.00;;;;;;;;;;4964338;28;20050;-72
2023/05/04 10:35:13;;;;;;;7.93;4.78;;;;;;;;;;4967865;28;20042;-71
2023/05/04 10:37:50;;;;;;;7.72;4.28;;;16.40;99.90;;;;;;4968239;28;20058;-71
2023/05/04 10:40:16;;;;;;;6.03;3.70;;;;;;;;;;4968442;28;20552;-71
2023/05/04 10:42:43;;;;;;;6.90;3.72;;;16.40;99.90;;;;;;4966490;28;20133;-71
2023/05/04 10:45:09;;;;;;;8.25;3.88;;;16.70;99.90;;;;;;4963041;28;20117;-71
2023/05/04 10:47:36;;;;;;;14.13;5.60;;;16.50;99.90;;;;;;4969021;28;20137;-71
2023/05/04 10:50:04;;;;;;;6.68;3.08;;;16.50;99.90;;;;;;4967771;28;20046;-71
2023/05/04 10:52:47;;;;;;;7.20;3.47;;;16.60;99.90;;;;;;4960665;28;20078;-71
2023/05/04 10:55:13;;;;;;;7.90;3.00;;;16.80;99.90;;;;;;4962794;28;20050;-71
2023/05/04 10:57:55;;;;;;;7.70;3.22;;;16.90;99.90;;;;;;4964912;28;20630;-71
2023/05/04 11:00:22;;;;;;;8.95;3.42;;;;;;;;;;4962738;28;20065;-72
2023/05/04 11:02:48;;;;;;;5.90;3.03;;;16.80;99.90;;;;;;4965701;28;20098;-72
2023/05/04 11:05:19;;;;;;;8.57;4.05;;;16.70;99.90;;;;;;4960862;28;20054;-72
2023/05/04 11:07:46;;;;;;;6.45;3.65;;;16.80;99.90;;;;;;4979568;28;20682;-71
2023/05/04 11:10:25;;;;;;;6.47;3.72;;;16.80;99.90;;;;;;4965853;28;20054;-72
2023/05/04 11:12:51;;;;;;;8.20;4.28;;;;;;;;;;4966184;28;20034;-71
2023/05/04 11:15:18;;;;;;;11.07;4.15;;;17.00;99.90;;;;;;4967431;28;20111;-71
2023/05/04 11:17:47;;;;;;;7.55;3.42;;;16.80;99.90;;;;;;4967460;28;20050;-71
2023/05/04 11:20:24;;;;;;;8.43;3.15;;;16.80;99.90;;;;;;4983588;28;20088;-72
2023/05/04 11:22:50;;;;;;;7.22;4.10;;;;;;;;;;4963856;28;20141;-76
2023/05/04 11:25:17;;;;;;;7.20;3.10;;;;;;;;;;4966073;28;20149;-75
2023/05/04 11:27:43;;;;;;;8.10;3.90;;;17.30;99.90;;;;;;4967156;28;20042;-75
2023/05/04 11:30:09;;;;;;;7.72;4.40;;;17.40;99.90;;;;;;4962162;28;20110;-71
2023/05/04 11:32:45;;;;;;;6.22;3.47;;;17.30;99.90;;;;;;4966796;28;20385;-72
2023/05/04 11:35:16;;;;;;;6.93;3.47;;;17.60;99.90;;;;;;4984658;28;20046;-72
2023/05/04 11:37:43;;;;;;;5.93;3.40;;;17.70;99.90;;;;;;4966034;28;20069;-72
2023/05/04 11:40:18;;;;;;;9.43;3.58;;;17.80;99.90;;;;;;4965955;28;20093;-71
2023/05/04 11:42:44;;;;;;;5.00;2.95;;;;;;;;;;4963387;28;20152;-72
2023/05/04 11:45:18;;;;;;;6.68;3.40;;;17.90;99.90;;;;;;4967579;28;20050;-72
2023/05/04 11:47:45;;;;;;;12.73;4.38;;;18.00;99.90;;;;;;4967044;28;20071;-73
2023/05/04 11:50:13;;;;;;;8.93;4.00;;;17.80;99.90;;;;;;4984367;28;20408;-74
2023/05/04 11:52:40;;;;;;;5.03;3.00;;;17.80;99.90;;;;;;4962359;28;20405;-73
2023/05/04 11:55:10;;;;;;;8.40;3.47;;;17.90;99.90;;;;;;4963654;28;20050;-73
2023/05/04 11:57:36;;;;;;;11.65;3.42;;;18.00;99.90;;;;;;4981461;28;20086;-73
2023/05/04 12:00:07;;;;;;;4.68;3.25;;;18.00;99.90;;;;;;4963687;28;20564;-73
2023/05/04 12:02:33;;;;;;;8.57;3.50;;;;;;;;;;4972263;28;20089;-72
2023/05/04 12:05:00;;;;;;;9.15;3.65;;;17.90;99.90;;;;;;4965988;28;20505;-73
2023/05/04 12:07:26;;;;;;;6.72;3.67;;;17.90;99.90;;;;;;4967261;28;20046;-73
2023/05/04 12:09:52;;;;;;;7.10;3.35;;;;;;;;;;4981231;28;20117;-73
2023/05/04 12:12:20;;;;;;;7.88;3.38;;;;;;;;;;4965400;28;20146;-72
2023/05/04 12:14:55;;;;;;;8.80;3.30;;;17.90;99.90;;;;;;4980469;28;20053;-72
2023/05/04 12:17:21;;;;;;;6.53;2.83;;;18.00;99.90;;;;;;4975779;28;20057;-72
2023/05/04 12:19:47;;;;;;;9.50;3.55;;;18.20;99.90;;;;;;4966703;28;20500;-72
2023/05/04 12:22:13;;;;;;;7.72;3.65;;;;;;;;;;4979068;28;20038;-72
2023/05/04 12:24:39;;;;;;;8.93;2.80;;;18.00;99.90;;;;;;4983412;28;20642;-72
2023/05/04 12:27:11;;;;;;;8.70;3.38;;;18.20;99.90;;;;;;4965603;28;20042;-72
2023/05/04 12:29:37;;;;;;;15.30;4.82;;;;;;;;;;4982789;28;20042;-72
2023/05/04 12:32:03;;;;;;;5.68;2.97;;;;;;;;;;4964288;28;20374;-73
2023/05/04 12:34:29;;;;;;;5.93;3.05;;;18.20;99.90;;;;;;4969652;28;20065;-72
2023/05/04 12:36:55;;;;;;;6.90;3.33;;;;;;;;;;4988179;28;20042;-72
2023/05/04 12:39:22;;;;;;;4.60;2.72;;;;;;;;;;4988331;28;20050;-72
2023/05/04 12:41:48;;;;;;;5.47;2.80;;;18.30;99.90;;;;;;4987689;28;20058;-72
2023/05/04 12:44:15;;;;;;;7.55;3.22;;;;;;;;;;4970651;28;20394;-70
2023/05/04 12:46:42;;;;;;;6.03;2.80;;;18.20;99.90;;;;;;4970146;28;20046;-71
2023/05/04 12:49:09;;;;;;;7.03;2.95;;;;;;;;;;4970986;28;20073;-72
2023/05/04 12:51:35;;;;;;;5.70;3.17;;;18.40;99.90;;;;;;4966331;28;20050;-72
2023/05/04 12:54:01;;;;;;;6.55;2.97;;;18.40;99.90;;;;;;4985720;28;20053;-72
2023/05/04 12:56:27;;;;;;;5.38;2.95;;;18.40;99.90;;;;;;4967384;28;20434;-72
2023/05/04 12:58:52;;;;;;;7.15;3.28;;;18.50;99.90;;;;;;4970257;28;20081;-72
2023/05/04 13:01:18;;;;;;;6.18;2.20;;;18.70;99.90;;;;;;4959731;28;20975;-72
2023/05/04 13:03:44;;;;;;;5.43;2.67;;;;;;;;;;4965585;28;20042;-71
2023/05/04 13:06:10;;;;;;;6.68;2.90;;;;;;;;;;4982727;28;20050;-71
2023/05/04 13:08:36;;;;;;;5.97;2.80;;;;;;;;;;4965427;28;20050;-72
2023/05/04 13:11:02;;;;;;;7.30;3.20;;;18.50;99.90;;;;;;4970239;28;20103;-72
2023/05/04 13:13:28;;;;;;;4.07;2.67;;;18.60;99.90;;;;;;4957273;28;20046;-72
2023/05/04 13:15:54;;;;;;;5.38;2.65;;;;;;;;;;4962430;28;20050;-72
2023/05/04 13:18:22;;;;;;;8.38;3.10;;;;;;;;;;4988129;28;20208;-73
2023/05/04 13:20:49;;;;;;;7.68;2.50;;;18.80;99.90;;;;;;4968477;28;20093;-73
2023/05/04 13:23:15;;;;;;;5.68;3.35;;;;;;;;;;4970232;28;20078;-71
2023/05/04 13:25:41;;;;;;;7.10;2.75;;;18.80;99.90;;;;;;4968433;28;20552;-73
2023/05/04 13:28:06;;;;;;;4.22;2.15;;;18.60;99.90;;;;;;4967535;28;20092;-72
2023/05/04 13:30:32;;;;;;;9.27;2.97;;;18.70;99.90;;;;;;4982829;28;20393;-71
2023/05/04 13:32:57;;;;;;;8.75;2.75;;;18.70;99.90;;;;;;4965352;28;20034;-71
2023/05/04 13:35:23;;;;;;;6.10;2.92;;;18.70;99.90;;;;;;4987083;28;20046;-71
2023/05/04 13:37:49;;;;;;;4.80;2.30;;;;;;;;;;4981982;28;20122;-74
2023/05/04 13:40:15;;;;;;;6.32;3.65;;;18.70;99.90;;;;;;4968090;28;20552;-73
2023/05/04 13:42:40;;;;;;;5.88;2.55;;;18.80;99.90;;;;;;4984493;28;20129;-72
2023/05/04 13:45:07;;;;;;;6.80;3.00;;;18.90;99.90;;;;;;4967645;28;20472;-73
2023/05/04 13:47:35;;;;;;;5.78;2.95;;;19.00;99.90;;;;;;4963683;28;20042;-72
2023/05/04 13:50:01;;;;;;;7.93;3.60;;;19.00;99.90;;;;;;4967220;28;20130;-73
2023/05/04 13:52:27;;;;;;;7.05;2.95;;;18.90;99.90;;;;;;4982272;28;20084;-72